Time;durP1;ratioP1;P1;durP2;ratioP2;P2;SDS_P1;SDS_P2;PMS_P1;PMS_P2;Temp;Humidity;BMP_temperature;BMP_pressure;BME280_temperature;BME280_humidity;BME280_pressure;Samples;Min_cycle;Max_cycle;Signal;HPM_P1;HPM_P2
2023/10/07 00:02:13;;;;;;;7.77;3.83;;;;;;;;;;5121245;28;20739;-64
2023/10/07 00:04:41;;;;;;;8.77;3.77;;;;;;;;;;5121305;28;20201;-64
2023/10/07 00:07:11;;;;;;;6.20;3.60;;;;;;;;;;5121185;28;20291;-64
2023/10/07 00:09:41;;;;;;;7.77;3.80;;;;;;;;;;5120621;28;20218;-66
2023/10/07 00:12:13;;;;;;;6.97;3.67;;;;;;;;;;5121113;28;20254;-65
2023/10/07 00:14:42;;;;;;;4.83;3.20;;;;;;;;;;5120829;28;20247;-65
2023/10/07 00:17:16;;;;;;;8.03;3.40;;;;;;;;;;5121010;28;20269;-64
2023/10/07 00:19:46;;;;;;;6.83;3.53;;;;;;;;;;5120792;28;20208;-65
2023/10/07 00:22:19;;;;;;;7.33;3.50;;;;;;;;;;5120324;28;20224;-64
2023/10/07 00:24:48;;;;;;;9.63;3.67;;;;;;;;;;5120256;28;20201;-64
2023/10/07 00:27:26;;;;;;;6.23;3.27;;;;;;;;;;5120829;28;20205;-64
2023/10/07 00:29:55;;;;;;;8.53;3.43;;;;;;;;;;5120739;28;20239;-66
2023/10/07 00:32:28;;;;;;;6.70;3.60;;;;;;;;;;5120840;28;20288;-65
2023/10/07 00:35:00;;;;;;;6.70;3.23;;;;;;;;;;5120405;28;20212;-66
2023/10/07 00:37:30;;;;;;;7.23;3.20;;;;;;;;;;5120721;28;20211;-66
2023/10/07 00:40:14;;;;;;;5.90;3.37;;;;;;;;;;5119895;28;20201;-64
2023/10/07 00:42:44;;;;;;;8.93;4.33;;;;;;;;;;5120730;28;20258;-65
2023/10/07 00:45:16;;;;;;;6.50;3.60;;;;;;;;;;5120788;28;20208;-66
2023/10/07 00:47:46;;;;;;;6.73;3.90;;;;;;;;;;5120452;28;20233;-66
2023/10/07 00:50:15;;;;;;;8.13;3.47;;;;;;;;;;5120069;28;20228;-66
2023/10/07 00:52:55;;;;;;;5.60;3.70;;;;;;;;;;5120005;28;20296;-66
2023/10/07 00:55:28;;;;;;;6.47;3.77;;;;;;;;;;5079407;28;20214;-66
2023/10/07 00:58:13;;;;;;;4.93;3.47;;;;;;;;;;5079523;28;20238;-66
2023/10/07 01:00:47;;;;;;;6.73;3.27;;;;;;;;;;5079127;28;20741;-66
2023/10/07 01:03:23;;;;;;;8.57;3.87;;;;;;;;;;5079503;28;20205;-66
2023/10/07 01:06:09;;;;;;;6.30;3.33;;;;;;;;;;5079412;28;20320;-66
2023/10/07 01:08:44;;;;;;;7.93;3.27;;;;;;;;;;5079388;28;20214;-65
2023/10/07 01:11:22;;;;;;;11.10;4.10;;;;;;;;;;5079065;28;20222;-66
2023/10/07 01:13:51;;;;;;;11.33;4.13;;;;;;;;;;5079110;28;20655;-66
2023/10/07 01:16:31;;;;;;;11.10;4.87;;;;;;;;;;5079022;28;20311;-66
2023/10/07 01:19:18;;;;;;;9.87;4.47;;;;;;;;;;5079215;28;20213;-66
2023/10/07 01:21:54;;;;;;;6.83;4.13;;;;;;;;;;5079102;28;20233;-65
2023/10/07 01:24:33;;;;;;;10.37;3.83;;;;;;;;;;5078479;28;20289;-66
2023/10/07 01:27:18;;;;;;;9.97;4.37;;;;;;;;;;5078875;28;20210;-66
2023/10/07 01:29:48;;;;;;;5.80;3.70;;;;;;;;;;5079003;28;20212;-66
2023/10/07 01:32:17;;;;;;;5.63;3.57;;;;;;;;;;5078280;28;20281;-66
2023/10/07 01:34:51;;;;;;;6.13;3.43;;;;;;;;;;5078732;28;20217;-65
2023/10/07 01:37:21;;;;;;;6.40;3.97;;;;;;;;;;5078532;28;20257;-66
2023/10/07 01:39:52;;;;;;;6.60;3.80;;;;;;;;;;5078280;28;20668;-66
2023/10/07 01:42:26;;;;;;;6.60;3.67;;;;;;;;;;5078491;28;20253;-66
2023/10/07 01:45:08;;;;;;;6.50;3.77;;;;;;;;;;5078731;28;20209;-65
2023/10/07 01:47:38;;;;;;;6.80;3.90;;;;;;;;;;5078699;28;20281;-66
2023/10/07 01:50:11;;;;;;;7.63;4.00;;;;;;;;;;5078402;28;20229;-66
2023/10/07 01:52:39;;;;;;;12.50;4.53;;;;;;;;;;5078432;28;20277;-66
2023/10/07 01:55:11;;;;;;;6.37;3.53;;;;;;;;;;5112449;28;20708;-66
2023/10/07 01:57:40;;;;;;;6.80;3.73;;;;;;;;;;5114070;28;20226;-66
2023/10/07 02:00:11;;;;;;;7.40;3.73;;;;;;;;;;5118866;28;20308;-66
2023/10/07 02:02:48;;;;;;;9.10;3.87;;;;;;;;;;5118985;28;20229;-65
2023/10/07 02:05:25;;;;;;;6.80;4.07;;;;;;;;;;5119125;28;20241;-66
2023/10/07 02:07:54;;;;;;;4.80;3.27;;;;;;;;;;5118944;28;20205;-64
2023/10/07 02:10:26;;;;;;;7.87;4.00;;;;;;;;;;5118585;28;20227;-65
2023/10/07 02:12:54;;;;;;;8.67;4.53;;;;;;;;;;5118865;28;20201;-64
2023/10/07 02:15:22;;;;;;;12.47;4.23;;;;;;;;;;5118590;28;20616;-65
2023/10/07 02:17:56;;;;;;;8.20;4.43;;;;;;;;;;5118429;28;20636;-65
2023/10/07 02:20:25;;;;;;;9.87;5.30;;;;;;;;;;5118490;28;20306;-63
2023/10/07 02:22:53;;;;;;;7.50;4.47;;;;;;;;;;5118626;28;20231;-62
2023/10/07 02:25:26;;;;;;;8.80;4.77;;;;;;;;;;5118084;28;20204;-62
2023/10/07 02:27:56;;;;;;;8.13;4.60;;;;;;;;;;5118580;28;20215;-62
2023/10/07 02:30:25;;;;;;;10.80;4.87;;;;;;;;;;5118373;28;20715;-62
2023/10/07 02:32:54;;;;;;;8.43;4.27;;;;;;;;;;5118326;28;20201;-62
2023/10/07 02:35:30;;;;;;;9.03;4.33;;;;;;;;;;5118267;28;20572;-63
2023/10/07 02:38:03;;;;;;;10.03;5.03;;;;;;;;;;5118193;28;20659;-62
2023/10/07 02:40:36;;;;;;;8.97;5.47;;;;;;;;;;5118203;28;20220;-63
2023/10/07 02:43:08;;;;;;;10.60;5.17;;;;;;;;;;5118784;28;20225;-62
2023/10/07 02:45:42;;;;;;;11.77;5.57;;;;;;;;;;5118381;28;20287;-62
2023/10/07 02:48:11;;;;;;;9.03;5.13;;;;;;;;;;5118493;28;20291;-61
2023/10/07 02:50:42;;;;;;;7.97;4.60;;;;;;;;;;5118172;28;20246;-61
2023/10/07 02:53:14;;;;;;;9.53;4.90;;;;;;;;;;5117884;28;20229;-61
2023/10/07 02:55:54;;;;;;;8.00;4.80;;;;;;;;;;5118058;28;20311;-62
2023/10/07 02:58:32;;;;;;;9.00;3.90;;;;;;;;;;5118041;28;20200;-61
2023/10/07 03:01:11;;;;;;;12.63;4.43;;;;;;;;;;5118092;28;20225;-61
2023/10/07 03:03:40;;;;;;;7.50;3.77;;;;;;;;;;5117957;28;20583;-62
2023/10/07 03:06:09;;;;;;;9.47;4.13;;;;;;;;;;5117819;28;20209;-61
2023/10/07 03:08:49;;;;;;;6.07;4.00;;;;;;;;;;5118195;28;20236;-62
2023/10/07 03:11:39;;;;;;;9.03;4.17;;;;;;;;;;5117765;28;20273;-62
2023/10/07 03:14:13;;;;;;;7.40;3.70;;;;;;;;;;5118177;28;20209;-62
2023/10/07 03:16:46;;;;;;;6.87;4.20;;;;;;;;;;5118180;28;20204;-62
2023/10/07 03:19:22;;;;;;;4.43;3.47;;;;;;;;;;5118127;28;20232;-62
2023/10/07 03:21:57;;;;;;;8.37;4.03;;;;;;;;;;5118025;28;20683;-62
2023/10/07 03:24:40;;;;;;;9.13;4.60;;;;;;;;;;5118046;28;20290;-62
2023/10/07 03:27:22;;;;;;;7.57;3.67;;;;;;;;;;5118094;28;20204;-62
2023/10/07 03:30:07;;;;;;;7.03;4.17;;;;;;;;;;5117956;28;20287;-62
2023/10/07 03:32:54;;;;;;;9.97;4.37;;;;;;;;;;5117985;28;20204;-62
2023/10/07 03:38:13;;;;;;;8.43;4.53;;;;;;;;;;5106890;28;20204;-61
2023/10/07 03:40:48;;;;;;;6.93;3.90;;;;;;;;;;5117526;28;20216;-62
2023/10/07 03:43:17;;;;;;;6.63;4.13;;;;;;;;;;5117566;28;20225;-61
2023/10/07 03:45:46;;;;;;;5.47;3.40;;;;;;;;;;5117872;28;20243;-61
2023/10/07 03:48:31;;;;;;;10.07;4.73;;;;;;;;;;5117809;28;20269;-62
2023/10/07 03:51:06;;;;;;;8.67;4.80;;;;;;;;;;5117575;28;20653;-61
2023/10/07 03:53:44;;;;;;;7.97;4.60;;;;;;;;;;5117432;28;20233;-62
2023/10/07 03:56:13;;;;;;;7.83;3.80;;;;;;;;;;5118885;28;20208;-61
2023/10/07 03:58:42;;;;;;;8.83;3.90;;;;;;;;;;5110102;28;20639;-61
2023/10/07 04:01:16;;;;;;;8.50;3.87;;;;;;;;;;5121021;28;20232;-61
2023/10/07 04:03:47;;;;;;;7.50;4.00;;;;;;;;;;5121497;28;20239;-62
2023/10/07 04:06:17;;;;;;;9.63;4.20;;;;;;;;;;5121493;28;20204;-62
2023/10/07 04:08:52;;;;;;;6.67;3.83;;;;;;;;;;5120838;27;20528;-61
2023/10/07 04:11:25;;;;;;;7.30;3.80;;;;;;;;;;5121055;28;20228;-61
2023/10/07 04:13:55;;;;;;;8.93;4.23;;;;;;;;;;5121354;28;20292;-62
2023/10/07 04:16:27;;;;;;;7.67;4.47;;;;;;;;;;5120835;28;20201;-63
2023/10/07 04:19:06;;;;;;;8.77;4.23;;;;;;;;;;5120846;28;20284;-62
2023/10/07 04:21:39;;;;;;;6.57;4.10;;;;;;;;;;5121056;28;20231;-61
2023/10/07 04:24:09;;;;;;;7.90;4.67;;;;;;;;;;5120304;28;20232;-60
2023/10/07 04:26:39;;;;;;;8.40;4.67;;;;;;;;;;5120938;28;20207;-62
2023/10/07 04:29:08;;;;;;;6.30;4.57;;;;;;;;;;5120826;28;20264;-62
2023/10/07 04:31:39;;;;;;;11.43;4.80;;;;;;;;;;5120852;28;20231;-60
2023/10/07 04:34:13;;;;;;;6.90;4.03;;;;;;;;;;5120749;28;20295;-62
2023/10/07 04:37:08;;;;;;;12.50;4.60;;;;;;;;;;5120513;28;20286;-62
2023/10/07 04:39:38;;;;;;;7.73;4.03;;;;;;;;;;5120375;28;20292;-62
2023/10/07 04:42:07;;;;;;;7.20;4.80;;;;;;;;;;5120511;28;20209;-62
2023/10/07 04:47:46;;;;;;;7.37;3.67;;;;;;;;;;5077718;28;20312;-62
2023/10/07 04:50:15;;;;;;;5.73;3.60;;;;;;;;;;5114035;28;20225;-62
2023/10/07 04:52:50;;;;;;;6.30;3.43;;;;;;;;;;5120619;28;20242;-61
2023/10/07 04:55:19;;;;;;;6.63;3.50;;;;;;;;;;5119608;28;20237;-61
2023/10/07 04:57:57;;;;;;;7.33;4.13;;;;;;;;;;5120293;28;20208;-62
2023/10/07 05:00:34;;;;;;;5.67;3.23;;;;;;;;;;5120193;28;20220;-62
2023/10/07 05:03:08;;;;;;;6.60;3.30;;;;;;;;;;5120152;28;20315;-61
2023/10/07 05:05:35;;;;;;;4.43;3.00;;;;;;;;;;5120195;28;20208;-62
2023/10/07 05:08:10;;;;;;;6.37;3.20;;;;;;;;;;5118618;28;20645;-63
2023/10/07 05:10:39;;;;;;;7.60;3.63;;;;;;;;;;5119679;28;20220;-62
2023/10/07 05:13:08;;;;;;;6.60;3.63;;;;;;;;;;5119766;28;20197;-63
2023/10/07 05:15:38;;;;;;;5.80;3.53;;;;;;;;;;5119896;28;20287;-63
2023/10/07 05:18:07;;;;;;;4.70;3.30;;;;;;;;;;5119775;28;20564;-62
2023/10/07 05:20:37;;;;;;;8.57;4.47;;;;;;;;;;5119760;28;20675;-61
2023/10/07 05:23:06;;;;;;;6.87;3.60;;;;;;;;;;5108359;28;20300;-60
2023/10/07 05:25:35;;;;;;;8.37;3.80;;;;;;;;;;5118819;28;20254;-62
2023/10/07 05:28:10;;;;;;;7.73;3.67;;;;;;;;;;5119330;28;20197;-61
2023/10/07 05:30:42;;;;;;;10.83;3.93;;;;;;;;;;5123806;27;20258;-61
2023/10/07 05:33:12;;;;;;;7.33;4.13;;;;;;;;;;5120489;27;20676;-62
2023/10/07 05:35:40;;;;;;;4.93;3.63;;;;;;;;;;5119513;28;20291;-61
2023/10/07 05:38:09;;;;;;;5.30;3.50;;;;;;;;;;5119157;28;20243;-61
2023/10/07 05:40:38;;;;;;;5.53;3.97;;;;;;;;;;5119192;27;20224;-62
2023/10/07 05:43:08;;;;;;;8.57;4.30;;;;;;;;;;5119309;28;20220;-62
2023/10/07 05:45:36;;;;;;;7.57;3.60;;;;;;;;;;5119347;28;20204;-63
2023/10/07 05:48:05;;;;;;;9.00;3.90;;;;;;;;;;5119469;28;20230;-63
2023/10/07 05:50:34;;;;;;;8.93;4.07;;;;;;;;;;5119057;28;20576;-64
2023/10/07 05:53:03;;;;;;;5.63;3.87;;;;;;;;;;5119036;28;20283;-65
2023/10/07 05:55:33;;;;;;;6.77;3.70;;;;;;;;;;5118915;28;20236;-64
2023/10/07 05:58:02;;;;;;;5.60;3.63;;;;;;;;;;5118943;28;20204;-64
2023/10/07 06:00:31;;;;;;;5.97;4.13;;;;;;;;;;5116888;28;20231;-64
2023/10/07 06:03:03;;;;;;;7.50;3.80;;;;;;;;;;5110938;28;20220;-65
2023/10/07 06:05:31;;;;;;;6.27;3.57;;;;;;;;;;5118881;28;20201;-65
2023/10/07 06:08:00;;;;;;;9.13;3.97;;;;;;;;;;5118904;28;20200;-65
2023/10/07 06:10:28;;;;;;;4.90;3.77;;;;;;;;;;5118156;28;20267;-65
2023/10/07 06:12:56;;;;;;;6.23;3.70;;;;;;;;;;5118593;28;20290;-65
2023/10/07 06:15:24;;;;;;;6.43;4.17;;;;;;;;;;5118758;28;20205;-65
2023/10/07 06:17:52;;;;;;;6.87;4.23;;;;;;;;;;5118489;28;20240;-65
2023/10/07 06:20:26;;;;;;;7.33;3.83;;;;;;;;;;5118348;28;20229;-63
2023/10/07 06:22:56;;;;;;;6.97;4.30;;;;;;;;;;5118412;28;20572;-63
2023/10/07 06:25:30;;;;;;;20.50;11.70;;;;;;;;;;5118370;28;20315;-62
2023/10/07 06:27:59;;;;;;;7.90;4.73;;;;;;;;;;5118290;28;20204;-63
2023/10/07 06:30:28;;;;;;;10.13;4.60;;;;;;;;;;5118247;28;20345;-63
2023/10/07 06:32:56;;;;;;;7.17;4.53;;;;;;;;;;5118408;28;20215;-63
2023/10/07 06:35:25;;;;;;;10.13;4.63;;;;;;;;;;5118585;28;20201;-63
2023/10/07 06:37:54;;;;;;;7.03;4.60;;;;;;;;;;5118358;28;20276;-63
2023/10/07 06:40:28;;;;;;;9.47;5.33;;;;;;;;;;5117766;28;20557;-64
2023/10/07 06:42:58;;;;;;;8.33;5.00;;;;;;;;;;5107855;28;20200;-65
2023/10/07 06:45:35;;;;;;;7.13;4.20;;;;;;;;;;5118281;28;20225;-64
2023/10/07 06:48:06;;;;;;;8.87;4.87;;;;;;;;;;5118490;28;20231;-64
2023/10/07 06:50:34;;;;;;;7.77;4.63;;;;;;;;;;5118303;28;20221;-64
2023/10/07 06:53:02;;;;;;;10.27;5.07;;;;;;;;;;5117745;28;20229;-65
2023/10/07 06:55:41;;;;;;;7.93;5.00;;;;;;;;;;5117982;28;20196;-64
2023/10/07 06:58:11;;;;;;;6.13;4.40;;;;;;;;;;5118399;28;20662;-64
2023/10/07 07:00:48;;;;;;;8.73;4.67;;;;;;;;;;5118059;28;20265;-65
2023/10/07 07:03:18;;;;;;;6.73;4.27;;;;;;;;;;5118198;28;20204;-64
2023/10/07 07:05:48;;;;;;;6.20;4.97;;;;;;;;;;5118169;28;20221;-64
2023/10/07 07:08:22;;;;;;;7.77;5.40;;;;;;;;;;5118137;28;20230;-64
2023/10/07 07:10:55;;;;;;;11.73;4.83;;;;;;;;;;5117775;28;20221;-64
2023/10/07 07:13:27;;;;;;;11.77;5.23;;;;;;;;;;5118127;28;20205;-62
2023/10/07 07:16:06;;;;;;;7.70;5.40;;;;;;;;;;5118193;28;20219;-63
2023/10/07 07:18:39;;;;;;;6.90;4.43;;;;;;;;;;5118130;28;20200;-63
2023/10/07 07:21:14;;;;;;;7.37;5.20;;;;;;;;;;5115659;28;20277;-64
2023/10/07 07:23:48;;;;;;;8.50;5.20;;;;;;;;;;5109259;28;20228;-64
2023/10/07 07:26:18;;;;;;;7.33;5.37;;;;;;;;;;5117740;28;20306;-63
2023/10/07 07:28:48;;;;;;;8.77;5.77;;;;;;;;;;5117861;28;20209;-63
2023/10/07 07:31:26;;;;;;;9.57;5.77;;;;;;;;;;5119103;28;20248;-64
2023/10/07 07:34:06;;;;;;;9.70;5.60;;;;;;;;;;5121956;28;20696;-64
2023/10/07 07:36:39;;;;;;;12.83;5.73;;;;;;;;;;5121996;28;20295;-70
2023/10/07 07:39:09;;;;;;;7.53;4.70;;;;;;;;;;5121414;28;20216;-70
2023/10/07 07:41:54;;;;;;;8.40;5.03;;;;;;;;;;5121945;28;20256;-69
2023/10/07 07:44:33;;;;;;;9.90;5.67;;;;;;;;;;5121724;28;20224;-70
2023/10/07 07:47:02;;;;;;;6.63;4.53;;;;;;;;;;5121418;28;20204;-71
2023/10/07 07:49:32;;;;;;;11.47;5.37;;;;;;;;;;5121577;28;20209;-69
2023/10/07 07:52:00;;;;;;;11.30;6.20;;;;;;;;;;5121045;28;20559;-70
2023/10/07 07:54:29;;;;;;;8.87;5.80;;;;;;;;;;5120901;28;20271;-70
2023/10/07 07:56:59;;;;;;;9.50;5.57;;;;;;;;;;5121176;28;20639;-70
2023/10/07 07:59:32;;;;;;;7.27;5.30;;;;;;;;;;5121308;28;20205;-70
2023/10/07 08:02:11;;;;;;;8.87;5.43;;;;;;;;;;5120933;28;20594;-70
2023/10/07 08:04:43;;;;;;;8.90;5.90;;;;;;;;;;5121259;27;20221;-70
2023/10/07 08:07:18;;;;;;;10.23;5.80;;;;;;;;;;5121256;28;20204;-70
2023/10/07 08:09:50;;;;;;;10.17;6.20;;;;;;;;;;5120578;28;20209;-70
2023/10/07 08:12:24;;;;;;;9.90;5.80;;;;;;;;;;5121176;28;20284;-69
2023/10/07 08:14:57;;;;;;;9.30;5.83;;;;;;;;;;5121134;28;20204;-70
2023/10/07 08:17:27;;;;;;;8.23;6.20;;;;;;;;;;5120848;28;20290;-70
2023/10/07 08:19:57;;;;;;;14.50;6.20;;;;;;;;;;5121003;28;20305;-69
2023/10/07 08:22:27;;;;;;;10.23;5.90;;;;;;;;;;5120941;28;20227;-70
2023/10/07 08:25:00;;;;;;;9.00;5.83;;;;;;;;;;5120405;28;20228;-69
2023/10/07 08:27:49;;;;;;;13.17;6.37;;;;;;;;;;5120792;28;20219;-68
2023/10/07 08:30:37;;;;;;;11.23;5.83;;;;;;;;;;5120340;28;20583;-70
2023/10/07 08:33:06;;;;;;;11.53;5.77;;;;;;;;;;5120713;28;20239;-69
2023/10/07 08:35:35;;;;;;;8.33;5.77;;;;;;;;;;5120801;28;20204;-68
2023/10/07 08:38:19;;;;;;;8.97;6.10;;;;;;;;;;5120745;28;20211;-70
2023/10/07 08:40:49;;;;;;;11.10;6.40;;;;;;;;;;5120187;28;20216;-70
2023/10/07 08:43:25;;;;;;;8.93;6.37;;;;;;;;;;5119954;27;20207;-68
2023/10/07 08:46:01;;;;;;;11.80;6.83;;;;;;;;;;5119957;28;20220;-69
2023/10/07 08:48:30;;;;;;;10.27;6.63;;;;;;;;;;5120605;28;20253;-70
2023/10/07 08:50:59;;;;;;;12.77;6.80;;;;;;;;;;5120120;28;20630;-70
2023/10/07 08:53:28;;;;;;;9.90;6.03;;;;;;;;;;5120043;28;20233;-70
2023/10/07 08:55:58;;;;;;;11.50;6.53;;;;;;;;;;5119910;28;20637;-71
2023/10/07 08:58:27;;;;;;;9.33;6.03;;;;;;;;;;5120428;28;20672;-70
2023/10/07 09:00:58;;;;;;;13.03;6.90;;;;;;;;;;5120083;28;20308;-70
2023/10/07 09:03:28;;;;;;;10.37;6.67;;;;;;;;;;5119938;28;20648;-68
2023/10/07 09:06:00;;;;;;;9.10;6.00;;;;;;;;;;5120124;28;20224;-68
2023/10/07 09:08:33;;;;;;;10.70;7.67;;;;;;;;;;5119724;28;20636;-68
2023/10/07 09:11:06;;;;;;;11.60;6.87;;;;;;;;;;5119897;28;20240;-67
2023/10/07 09:13:38;;;;;;;12.03;7.23;;;;;;;;;;5119687;28;20209;-68
2023/10/07 09:16:10;;;;;;;10.17;7.00;;;;;;;;;;5120115;28;20719;-69
2023/10/07 09:18:40;;;;;;;14.17;6.70;;;;;;;;;;5120005;28;20201;-68
2023/10/07 09:21:12;;;;;;;15.53;6.03;;;;;;;;;;5119760;28;20315;-70
2023/10/07 09:23:47;;;;;;;10.17;6.37;;;;;;;;;;5107584;28;20271;-70
2023/10/07 09:26:30;;;;;;;11.70;6.63;;;;;;;;;;5119533;28;20232;-68
2023/10/07 09:28:59;;;;;;;10.67;6.23;;;;;;;;;;5119799;28;20211;-68
2023/10/07 09:31:30;;;;;;;14.13;6.87;;;;;;;;;;5119704;28;20220;-70
2023/10/07 09:34:03;;;;;;;12.40;6.53;;;;;;;;;;5105878;28;20204;-69
2023/10/07 09:36:34;;;;;;;12.47;6.90;;;;;;;;;;5119140;28;20251;-69
2023/10/07 09:39:31;;;;;;;14.00;6.30;;;;;;;;;;5119000;28;20209;-68
2023/10/07 09:42:04;;;;;;;12.17;7.00;;;;;;;;;;5118980;28;20273;-69
2023/10/07 09:44:32;;;;;;;11.37;6.60;;;;;;;;;;5119361;27;20209;-68
2023/10/07 09:47:03;;;;;;;11.37;6.37;;;;;;;;;;5119303;28;20228;-70
2023/10/07 09:49:32;;;;;;;8.90;6.73;;;;;;;;;;5118990;28;20667;-68
2023/10/07 09:52:15;;;;;;;10.20;5.83;;;;;;;;;;5119206;28;20320;-68
2023/10/07 09:54:55;;;;;;;9.80;6.00;;;;;;;;;;5117703;28;20840;-69
2023/10/07 09:57:30;;;;;;;8.80;5.37;;;;;;;;;;5119369;28;20261;-69
2023/10/07 10:00:37;;;;;;;8.77;5.37;;;;;;;;;;5118721;28;20211;-69
2023/10/07 10:03:05;;;;;;;12.77;6.07;;;;;;;;;;5118714;28;20215;-70
2023/10/07 10:05:44;;;;;;;15.77;5.20;;;;;;;;;;5119040;28;20255;-70
2023/10/07 10:08:27;;;;;;;14.47;5.90;;;;;;;;;;5118708;28;20638;-70
2023/10/07 10:10:58;;;;;;;12.03;5.10;;;;;;;;;;5118233;28;20283;-70
2023/10/07 10:16:14;;;;;;;8.10;5.67;;;;;;;;;;5118288;27;20659;-69
2023/10/07 10:18:44;;;;;;;9.43;5.07;;;;;;;;;;5118503;28;20303;-70
2023/10/07 10:21:12;;;;;;;8.53;4.43;;;;;;;;;;5118533;28;20229;-69
2023/10/07 10:23:42;;;;;;;9.73;5.07;;;;;;;;;;5118186;28;20205;-68
2023/10/07 10:26:22;;;;;;;8.17;4.80;;;;;;;;;;5118656;28;20307;-69
2023/10/07 10:28:59;;;;;;;13.60;4.53;;;;;;;;;;5118635;28;20208;-67
2023/10/07 10:31:32;;;;;;;9.33;4.47;;;;;;;;;;5118113;28;20232;-70
2023/10/07 10:34:05;;;;;;;6.83;4.83;;;;;;;;;;5118538;27;20201;-67
2023/10/07 10:36:38;;;;;;;10.57;4.07;;;;;;;;;;5118403;28;20205;-70
2023/10/07 10:39:18;;;;;;;10.13;4.37;;;;;;;;;;5118096;28;20205;-70
2023/10/07 10:42:09;;;;;;;6.40;3.63;;;;;;;;;;5108377;28;20208;-68
2023/10/07 10:44:38;;;;;;;8.63;4.17;;;;;;;;;;5118008;28;20223;-68
2023/10/07 10:47:07;;;;;;;8.83;4.20;;;;;;;;;;5118284;28;20224;-68
2023/10/07 10:49:43;;;;;;;12.70;4.47;;;;;;;;;;5117910;28;20208;-68
2023/10/07 10:52:13;;;;;;;8.37;4.50;;;;;;;;;;5118255;28;20207;-68
2023/10/07 10:54:41;;;;;;;6.77;3.87;;;;;;;;;;5117444;28;20601;-70
2023/10/07 10:57:14;;;;;;;8.20;3.87;;;;;;;;;;5117713;28;20553;-68
2023/10/07 10:59:43;;;;;;;7.10;3.80;;;;;;;;;;5118070;28;20208;-68
2023/10/07 11:02:16;;;;;;;9.53;4.10;;;;;;;;;;5118565;28;20216;-70
2023/10/07 11:04:46;;;;;;;6.80;3.73;;;;;;;;;;5117969;28;20577;-70
2023/10/07 11:07:14;;;;;;;11.17;4.23;;;;;;;;;;5121313;28;20225;-70
2023/10/07 11:09:42;;;;;;;7.93;3.47;;;;;;;;;;5121717;28;20300;-68
2023/10/07 11:12:12;;;;;;;6.63;3.57;;;;;;;;;;5122302;28;20265;-68
2023/10/07 11:14:41;;;;;;;7.93;3.57;;;;;;;;;;5122497;28;20597;-69
2023/10/07 11:17:10;;;;;;;7.37;3.60;;;;;;;;;;5121891;28;20254;-68
2023/10/07 11:19:41;;;;;;;7.67;3.23;;;;;;;;;;5122116;28;20215;-68
2023/10/07 11:22:16;;;;;;;5.47;3.37;;;;;;;;;;5122071;28;20282;-69
2023/10/07 11:24:46;;;;;;;6.30;3.00;;;;;;;;;;5110905;28;20233;-69
2023/10/07 11:27:15;;;;;;;7.63;3.20;;;;;;;;;;5121686;28;20259;-69
2023/10/07 11:29:44;;;;;;;5.70;3.03;;;;;;;;;;5122013;28;20223;-68
2023/10/07 11:32:13;;;;;;;5.87;3.03;;;;;;;;;;5122085;28;20211;-69
2023/10/07 11:34:43;;;;;;;8.47;3.33;;;;;;;;;;5121619;28;20733;-69
2023/10/07 11:37:14;;;;;;;4.37;3.20;;;;;;;;;;5121754;28;20201;-68
2023/10/07 11:39:46;;;;;;;5.83;2.90;;;;;;;;;;5121085;28;20605;-69
2023/10/07 11:42:15;;;;;;;6.30;2.93;;;;;;;;;;5121728;28;20271;-68
2023/10/07 11:44:46;;;;;;;5.17;3.03;;;;;;;;;;5121665;28;20257;-69
2023/10/07 11:47:16;;;;;;;7.13;3.23;;;;;;;;;;5121327;28;20316;-68
2023/10/07 11:49:46;;;;;;;6.47;3.47;;;;;;;;;;5121604;28;20211;-69
2023/10/07 11:52:17;;;;;;;8.50;3.50;;;;;;;;;;5121486;28;20207;-69
2023/10/07 11:54:45;;;;;;;6.83;3.33;;;;;;;;;;5120810;28;20327;-69
2023/10/07 11:57:13;;;;;;;7.17;3.10;;;;;;;;;;5121180;28;20209;-69
2023/10/07 11:59:45;;;;;;;6.60;3.57;;;;;;;;;;5121121;28;20201;-69
2023/10/07 12:02:14;;;;;;;6.60;3.47;;;;;;;;;;5107896;28;20245;-68
2023/10/07 12:04:46;;;;;;;8.33;3.40;;;;;;;;;;5121283;28;20240;-68
2023/10/07 12:07:16;;;;;;;5.93;3.03;;;;;;;;;;5121272;28;20233;-69
2023/10/07 12:09:46;;;;;;;6.33;3.53;;;;;;;;;;5120589;28;20212;-68
2023/10/07 12:12:15;;;;;;;5.00;2.70;;;;;;;;;;5121450;27;20207;-68
2023/10/07 12:14:43;;;;;;;6.37;2.93;;;;;;;;;;5121250;28;20264;-68
2023/10/07 12:17:11;;;;;;;5.37;2.73;;;;;;;;;;5120598;28;20266;-67
2023/10/07 12:19:41;;;;;;;4.33;3.03;;;;;;;;;;5120981;28;20206;-68
2023/10/07 12:22:12;;;;;;;5.80;2.80;;;;;;;;;;5120603;28;20201;-69
2023/10/07 12:24:43;;;;;;;6.27;3.00;;;;;;;;;;5120736;28;20244;-67
2023/10/07 12:27:12;;;;;;;4.27;2.50;;;;;;;;;;5120867;28;20229;-67
2023/10/07 12:29:41;;;;;;;5.87;2.80;;;;;;;;;;5120517;28;20220;-67
2023/10/07 12:32:09;;;;;;;9.60;3.30;;;;;;;;;;5120534;28;20294;-68
2023/10/07 12:34:40;;;;;;;6.03;2.83;;;;;;;;;;5120390;28;20207;-69
2023/10/07 12:37:08;;;;;;;5.80;3.03;;;;;;;;;;5120496;28;20205;-69
2023/10/07 12:39:39;;;;;;;5.60;2.70;;;;;;;;;;5119936;28;20540;-69
2023/10/07 12:42:09;;;;;;;6.77;2.37;;;;;;;;;;5120343;28;20220;-69
2023/10/07 12:44:37;;;;;;;4.13;2.70;;;;;;;;;;5120153;28;20206;-69
2023/10/07 12:47:08;;;;;;;4.13;2.67;;;;;;;;;;5120476;28;20239;-68
2023/10/07 12:49:40;;;;;;;4.63;3.07;;;;;;;;;;5120463;28;20210;-69
2023/10/07 12:52:09;;;;;;;4.00;2.30;;;;;;;;;;5116472;28;20204;-68
2023/10/07 12:54:37;;;;;;;4.90;2.50;;;;;;;;;;5115488;28;20233;-68
2023/10/07 12:57:07;;;;;;;3.17;2.40;;;;;;;;;;5113961;28;20653;-68
2023/10/07 12:59:37;;;;;;;5.93;2.90;;;;;;;;;;5110588;28;20208;-67
2023/10/07 13:02:09;;;;;;;6.10;2.67;;;;;;;;;;5117345;28;20225;-66
2023/10/07 13:04:37;;;;;;;5.73;2.37;;;;;;;;;;5109714;28;20281;-68
2023/10/07 13:07:10;;;;;;;7.93;2.67;;;;;;;;;;5111857;28;20313;-71
2023/10/07 13:09:40;;;;;;;6.60;3.00;;;;;;;;;;5110006;28;20198;-68
2023/10/07 13:12:15;;;;;;;4.97;3.10;;;;;;;;;;5116193;28;20679;-68
2023/10/07 13:14:46;;;;;;;5.23;2.80;;;;;;;;;;5109463;28;20203;-69
2023/10/07 13:17:14;;;;;;;6.90;2.90;;;;;;;;;;5116861;28;20635;-68
2023/10/07 13:19:48;;;;;;;3.93;2.47;;;;;;;;;;5110046;28;20709;-68
2023/10/07 13:22:18;;;;;;;8.37;2.53;;;;;;;;;;5116941;28;20607;-69
2023/10/07 13:24:46;;;;;;;3.77;2.43;;;;;;;;;;5117179;28;20662;-70
2023/10/07 13:27:16;;;;;;;5.30;2.60;;;;;;;;;;5110624;28;20256;-70
2023/10/07 13:29:47;;;;;;;6.53;2.63;;;;;;;;;;5108797;28;20199;-70
2023/10/07 13:32:15;;;;;;;6.37;2.77;;;;;;;;;;5117197;28;20203;-70
2023/10/07 13:34:44;;;;;;;7.30;2.50;;;;;;;;;;5114806;28;20212;-69
2023/10/07 13:37:12;;;;;;;6.10;2.70;;;;;;;;;;5117062;28;20200;-70
2023/10/07 13:39:40;;;;;;;12.77;3.33;;;;;;;;;;5107432;28;20202;-70
2023/10/07 13:42:11;;;;;;;4.13;2.83;;;;;;;;;;5118561;28;20701;-69
2023/10/07 13:44:40;;;;;;;4.73;3.17;;;;;;;;;;5118696;28;20206;-70
2023/10/07 13:47:09;;;;;;;6.07;3.10;;;;;;;;;;5118111;28;20236;-70
2023/10/07 13:49:41;;;;;;;9.57;3.13;;;;;;;;;;5118463;28;20209;-71
2023/10/07 13:52:10;;;;;;;13.40;2.83;;;;;;;;;;5119018;28;20204;-70
2023/10/07 13:54:47;;;;;;;5.07;2.50;;;;;;;;;;5118149;28;20237;-71
2023/10/07 13:57:22;;;;;;;5.57;2.90;;;;;;;;;;5118632;28;20205;-71
2023/10/07 13:59:51;;;;;;;4.27;2.97;;;;;;;;;;5118350;28;20643;-70
2023/10/07 14:02:21;;;;;;;8.57;2.70;;;;;;;;;;5118754;28;20209;-70
2023/10/07 14:04:52;;;;;;;5.00;2.87;;;;;;;;;;5118532;28;20207;-71
2023/10/07 14:07:21;;;;;;;8.50;2.50;;;;;;;;;;5118786;28;20212;-71
2023/10/07 14:09:49;;;;;;;4.10;2.57;;;;;;;;;;5118239;28;20211;-72
2023/10/07 14:12:17;;;;;;;5.17;2.63;;;;;;;;;;5118537;28;20206;-70
2023/10/07 14:14:51;;;;;;;7.73;2.40;;;;;;;;;;5118554;28;20714;-70
2023/10/07 14:17:22;;;;;;;6.73;3.20;;;;;;;;;;5118731;28;20285;-71
2023/10/07 14:19:50;;;;;;;5.07;2.60;;;;;;;;;;5118856;28;20206;-70
2023/10/07 14:22:18;;;;;;;6.67;2.43;;;;;;;;;;5118572;28;20198;-70
2023/10/07 14:24:47;;;;;;;3.70;2.63;;;;;;;;;;5117891;28;20206;-71
2023/10/07 14:27:15;;;;;;;8.43;2.67;;;;;;;;;;5118284;28;20209;-71
2023/10/07 14:29:43;;;;;;;6.03;2.40;;;;;;;;;;5118400;28;20211;-71
2023/10/07 14:32:11;;;;;;;6.70;3.03;;;;;;;;;;5118252;28;20354;-71
2023/10/07 14:34:41;;;;;;;7.07;2.30;;;;;;;;;;5118342;28;20202;-70
2023/10/07 14:37:10;;;;;;;6.87;2.30;;;;;;;;;;5118447;28;20243;-70
2023/10/07 14:39:38;;;;;;;5.00;2.20;;;;;;;;;;5108444;28;20203;-72
2023/10/07 14:42:23;;;;;;;4.13;2.40;;;;;;;;;;5106789;28;20238;-70
2023/10/07 14:44:51;;;;;;;7.17;2.63;;;;;;;;;;5118290;28;20213;-72
2023/10/07 14:47:21;;;;;;;3.87;2.60;;;;;;;;;;5118449;28;20279;-72
2023/10/07 14:49:51;;;;;;;7.23;2.83;;;;;;;;;;5118138;28;20262;-72
2023/10/07 14:52:20;;;;;;;5.30;2.57;;;;;;;;;;5118290;28;20209;-71
2023/10/07 14:54:48;;;;;;;3.90;2.30;;;;;;;;;;5117528;28;20241;-72
2023/10/07 14:57:18;;;;;;;3.77;2.00;;;;;;;;;;5117727;28;20574;-70
2023/10/07 14:59:46;;;;;;;5.83;2.33;;;;;;;;;;5117791;28;20254;-70
2023/10/07 15:02:14;;;;;;;5.13;2.30;;;;;;;;;;5119516;28;20272;-70
2023/10/07 15:04:42;;;;;;;7.27;2.77;;;;;;;;;;5117780;28;20289;-71
2023/10/07 15:07:11;;;;;;;3.37;2.30;;;;;;;;;;5117403;28;20546;-70
2023/10/07 15:09:39;;;;;;;6.33;2.27;;;;;;;;;;5117144;28;20230;-71
2023/10/07 15:12:08;;;;;;;5.30;2.47;;;;;;;;;;5113878;28;20569;-73
2023/10/07 15:14:37;;;;;;;5.67;2.67;;;;;;;;;;5114143;28;20229;-70
2023/10/07 15:17:05;;;;;;;5.33;2.20;;;;;;;;;;5106564;28;20197;-70
2023/10/07 15:19:33;;;;;;;5.43;2.20;;;;;;;;;;5114775;28;20249;-71